Suehiro Maru No.8 — JK5423 — position and weather

sailwx.info

Track history (hours):
 
Tides and Currents Weather Stations Pressure Air Temp Water Temp Dewpoint Dewpoint Depression Visibility Wind Speed Wind Dir Waves Ship Positions

Suehiro Maru No.8

Last reported at 2014-Dec-18 00:34 UTC. Time now 2014-Dec-20 20:07 UTC.
Position N 35°16' E 139°45'.

Length 88 m; draft 4.6 m.

Type: Cargo ship. MMSI: 431400446.

Date/timePositionNaut miles runAvg speedWind from/ knotsBaromVisibWave heightAir tempDewpointWater temp
2014-Dec-18 00:34N 35°16' E 139°45'1010.4
2014-Dec-17 23:33N 35°26' E 139°46'10 9.7
2014-Dec-17 22:33N 35°34' E 139°54'0 0.0
2014-Dec-17 21:33N 35°34' E 139°54'0 0.0
2014-Dec-17 20:33N 35°34' E 139°54'0 0.0
2014-Dec-17 19:30N 35°34' E 139°54'0 0.0
2014-Dec-17 18:27N 35°34' E 139°54'0 0.1
2014-Dec-17 17:33N 35°34' E 139°54'0 0.0
2014-Dec-17 16:32N 35°34' E 139°54'0 0.0
2014-Dec-17 15:33N 35°34' E 139°54'0 0.0
2014-Dec-17 14:30N 35°34' E 139°54'0 0.0
2014-Dec-17 12:05N 35°34' E 139°54'0 0.0
2014-Dec-17 08:30N 35°34' E 139°54'0 0.0
2014-Dec-17 06:11N 35°34' E 139°54'0 0.0
2014-Dec-17 05:22N 35°34' E 139°54'0 0.5
2014-Dec-17 04:32N 35°34' E 139°53'5 2.1
2014-Dec-17 02:17N 35°37' E 139°49'0 0.0
2014-Dec-17 00:12N 35°37' E 139°49'0 0.0
2014-Dec-16 23:15N 35°37' E 139°49'0 0.0
2014-Dec-16 22:32N 35°37' E 139°49'1 0.7
2014-Dec-16 21:34N 35°37' E 139°49'1 0.0
2014-Dec-15 22:12N 35°38' E 139°50'0 0.1
2014-Dec-15 21:16N 35°38' E 139°50'1 2.0
2014-Dec-15 20:33N 35°36' E 139°50'3 2.7
2014-Dec-15 19:29N 35°35' E 139°53'5 4.9
2014-Dec-15 18:33N 35°31' E 139°52'9 9.1
2014-Dec-15 17:34N 35°23' E 139°46'1010.4
2014-Dec-15 16:34N 35°13' E 139°47'4 0.1
2014-Dec-14 07:33N 35°16' E 139°45'1110.7
2014-Dec-14 06:33N 35°27' E 139°47'1413.3
2014-Dec-14 05:29N 35°38' E 139°58'0 0.1
2014-Dec-13 23:27N 35°38' E 139°59'1 0.7
2014-Dec-13 22:30N 35°38' E 139°58'6 1.5
2014-Dec-13 18:16N 35°32' E 139°54'811.6
2014-Dec-13 17:33N 35°26' E 139°48'1010.2
2014-Dec-13 16:33N 35°16' E 139°47'1211.1
2014-Dec-13 15:28N 35°04' E 139°44'  
2014-Dec-09 22:32N 34°00' E 134°54'  
Track history (hours):
 
Tides and Currents Weather Stations Pressure Air Temp Water Temp Dewpoint Dewpoint Depression Visibility Wind Speed Wind Dir Waves Ship Positions

Suehiro Maru No.8

Last reported at 2014-Dec-18 00:34 UTC. Time now 2014-Dec-20 20:07 UTC.
Position N 35°16' E 139°45'.

Length 88 m; draft 4.6 m.

Type: Cargo ship. MMSI: 431400446.

Date/timePositionNaut miles runAvg speedWind from/ knotsBaromVisibWave heightAir tempDewpointWater temp
2014-Dec-18 00:34N 35°16' E 139°45'1010.4
2014-Dec-17 23:33N 35°26' E 139°46'10 9.7
2014-Dec-17 22:33N 35°34' E 139°54'0 0.0
2014-Dec-17 21:33N 35°34' E 139°54'0 0.0
2014-Dec-17 20:33N 35°34' E 139°54'0 0.0
2014-Dec-17 19:30N 35°34' E 139°54'0 0.0
2014-Dec-17 18:27N 35°34' E 139°54'0 0.1
2014-Dec-17 17:33N 35°34' E 139°54'0 0.0
2014-Dec-17 16:32N 35°34' E 139°54'0 0.0
2014-Dec-17 15:33N 35°34' E 139°54'0 0.0
2014-Dec-17 14:30N 35°34' E 139°54'0 0.0
2014-Dec-17 12:05N 35°34' E 139°54'0 0.0
2014-Dec-17 08:30N 35°34' E 139°54'0 0.0
2014-Dec-17 06:11N 35°34' E 139°54'0 0.0
2014-Dec-17 05:22N 35°34' E 139°54'0 0.5
2014-Dec-17 04:32N 35°34' E 139°53'5 2.1
2014-Dec-17 02:17N 35°37' E 139°49'0 0.0
2014-Dec-17 00:12N 35°37' E 139°49'0 0.0
2014-Dec-16 23:15N 35°37' E 139°49'0 0.0
2014-Dec-16 22:32N 35°37' E 139°49'1 0.7
2014-Dec-16 21:34N 35°37' E 139°49'1 0.0
2014-Dec-15 22:12N 35°38' E 139°50'0 0.1
2014-Dec-15 21:16N 35°38' E 139°50'1 2.0
2014-Dec-15 20:33N 35°36' E 139°50'3 2.7
2014-Dec-15 19:29N 35°35' E 139°53'5 4.9
2014-Dec-15 18:33N 35°31' E 139°52'9 9.1
2014-Dec-15 17:34N 35°23' E 139°46'1010.4
2014-Dec-15 16:34N 35°13' E 139°47'4 0.1
2014-Dec-14 07:33N 35°16' E 139°45'1110.7
2014-Dec-14 06:33N 35°27' E 139°47'1413.3
2014-Dec-14 05:29N 35°38' E 139°58'0 0.1
2014-Dec-13 23:27N 35°38' E 139°59'1 0.7
2014-Dec-13 22:30N 35°38' E 139°58'6 1.5
2014-Dec-13 18:16N 35°32' E 139°54'811.6
2014-Dec-13 17:33N 35°26' E 139°48'1010.2
2014-Dec-13 16:33N 35°16' E 139°47'1211.1
2014-Dec-13 15:28N 35°04' E 139°44'  
2014-Dec-09 22:32N 34°00' E 134°54'  

Dump ship's entire track history